Data for 12/01/2017

Time Sea-Level Adjusted Pressure Absolute Pressure Temperature Relative Humidity Dew Point   
(mb) (inHg) (mb) (inHg) (C) (F) (%) (C) (F)
00:05 1018 30.06 847 25.01 -0.2 31.7 54 -8.3 17.1
00:10 1018 30.06 847 25.01 -0.2 31.7 55 -8.1 17.5
00:15 1018 30.06 847 25.01 -0.3 31.5 56 -8.1 17.4
00:20 1018 30.06 847 25.01 -0.2 31.6 57 -7.7 18.1
00:25 1018 30.06 847 25.01 -0.4 31.3 58 -7.7 18.2
00:30 1018 30.06 847 25.01 -0.5 31 57 -8.1 17.5
00:35 1018 30.06 847 25.01 -0.4 31.3 57 -8 17.6
00:40 1018 30.06 847 25.01 -0.2 31.6 55 -8.3 17
00:45 1018 30.06 847 25.01 -0.1 31.8 53 -8.5 16.7
00:50 1018 30.06 847 25.01 0.1 32.2 53 -8.3 17.1
00:55 1018 30.06 848 25.04 0 32.1 52 -8.6 16.5
01:00 1018 30.06 848 25.04 0.3 32.5 54 -8 17.5
01:05 1018 30.06 848 25.04 0.3 32.6 52 -8.4 17
01:10 1018 30.06 848 25.04 0.5 32.8 52 -8.2 17.2
01:15 1018 30.06 848 25.04 0.5 32.9 52 -8.1 17.4
01:20 1018 30.06 848 25.04 0.7 33.3 51 -8.3 17.1
01:25 1018 30.06 848 25.04 0.9 33.6 50 -8.3 17.1
01:30 1018 30.06 848 25.04 0.8 33.5 52 -8 17.5
01:35 1018 30.06 848 25.04 0.9 33.6 50 -8.3 17.1
01:40 1018 30.06 848 25.04 1 33.8 50 -8.3 17
01:45 1018 30.06 848 25.04 1.2 34.1 50 -8.1 17.5
01:50 1018 30.06 848 25.04 1.1 34 51 -8 17.5
01:55 1018 30.06 848 25.04 1.1 33.9 51 -7.9 17.8
02:00 1018 30.06 848 25.04 1 33.9 52 -7.9 17.8
02:05 1018 30.06 848 25.04 0.9 33.6 52 -7.7 18.1
02:10 1018 30.06 848 25.04 0.8 33.5 53 -7.8 18
02:15 1018 30.06 848 25.04 0.8 33.5 53 -7.7 18.1
02:20 1018 30.06 848 25.04 0.8 33.4 53 -7.7 18.1
02:25 1018 30.06 848 25.04 0.8 33.4 53 -7.7 18.2
02:30 1018 30.06 848 25.04 0.7 33.3 53 -7.7 18.2
02:35 1018 30.06 848 25.04 0.8 33.5 54 -7.5 18.5
02:40 1018 30.06 848 25.04 0.9 33.7 53 -7.7 18.2
02:45 1018 30.06 848 25.04 0.8 33.5 54 -7.6 18.4
02:50 1018 30.06 848 25.04 0.8 33.4 53 -7.8 18
02:55 1018 30.06 848 25.04 0.9 33.6 53 -7.6 18.4
03:00 1018 30.06 848 25.04 1 33.7 52 -7.8 17.9
03:05 1018 30.06 847 25.01 1 33.7 51 -8 17.7
03:10 1018 30.06 847 25.01 0.9 33.6 53 -7.6 18.3
03:15 1018 30.06 847 25.01 1 33.7 53 -7.7 18.2
03:20 1018 30.06 848 25.04 0.9 33.7 54 -7.4 18.8
03:25 1018 30.06 848 25.04 0.5 32.8 55 -7.5 18.4
03:30 1018 30.06 848 25.04 0.5 32.9 55 -7.6 18.3
03:35 1019 30.09 848 25.04 0.7 33.2 55 -7.3 18.8
03:40 1019 30.09 848 25.04 0.7 33.3 53 -7.9 17.7
03:45 1019 30.09 848 25.04 1.2 34.1 52 -7.7 18.1
03:50 1019 30.09 848 25.04 1.4 34.5 51 -7.7 18.1
03:55 1019 30.09 848 25.04 1.5 34.7 50 -7.8 17.9
04:00 1019 30.09 848 25.04 1.6 34.8 50 -7.8 17.9
04:05 1019 30.09 848 25.04 1.8 35.2 49 -7.8 17.9
04:10 1019 30.09 848 25.04 1.9 35.3 49 -7.8 17.9
04:15 1019 30.09 848 25.04 1.9 35.4 49 -7.6 18.3
04:20 1019 30.09 848 25.04 1.7 35.1 49 -7.7 18.1
04:25 1019 30.09 848 25.04 1.7 35 50 -7.7 18.2
04:30 1019 30.09 848 25.04 1.6 34.9 50 -7.6 18.2
04:35 1019 30.09 848 25.04 1.6 34.8 51 -7.6 18.4
04:40 1019 30.09 848 25.04 1.5 34.7 51 -7.5 18.4
04:45 1019 30.09 848 25.04 1.4 34.6 52 -7.3 18.8
04:50 1019 30.09 848 25.04 1.3 34.3 53 -7.4 18.7
04:55 1019 30.09 848 25.04 1.2 34.1 53 -7.4 18.6
05:00 1019 30.09 848 25.04 1.1 34 53 -7.4 18.7
05:05 1019 30.09 848 25.04 1.2 34.1 53 -7.3 18.8
05:10 1019 30.09 848 25.04 1.1 34 53 -7.5 18.4
05:15 1019 30.09 848 25.04 1.1 34 54 -7.3 18.9
05:20 1019 30.09 848 25.04 1 33.8 53 -7.6 18.4
05:25 1019 30.09 848 25.04 1.1 33.9 53 -7.4 18.7
05:30 1019 30.09 848 25.04 1 33.8 53 -7.5 18.6
05:35 1019 30.09 848 25.04 1 33.7 54 -7.4 18.7
05:40 1019 30.09 848 25.04 0.9 33.7 54 -7.4 18.6
05:45 1019 30.09 848 25.04 1 33.8 54 -7.3 18.8
05:50 1019 30.09 848 25.04 1 33.7 54 -7.4 18.7
05:55 1019 30.09 848 25.04 0.8 33.5 55 -7.2 19
06:00 1019 30.09 848 25.04 0.8 33.5 54 -7.4 18.6
06:05 1019 30.09 848 25.04 1 33.8 53 -7.5 18.4
06:10 1019 30.09 848 25.04 1.1 34 53 -7.5 18.5
06:15 1019 30.09 848 25.04 1.1 34 53 -7.4 18.7
06:20 1019 30.09 848 25.04 1.1 34 53 -7.5 18.4
06:25 1019 30.09 848 25.04 1.1 33.9 53 -7.4 18.7
06:30 1019 30.09 848 25.04 1 33.7 54 -7.4 18.7
06:35 1019 30.09 848 25.04 0.9 33.5 54 -7.4 18.6
06:40 1019 30.09 848 25.04 0.8 33.5 55 -7.2 19
06:45 1019 30.09 848 25.04 0.8 33.4 55 -7.2 19
06:50 1019 30.09 848 25.04 0.7 33.2 56 -7 19.3
06:55 1019 30.09 848 25.04 0.6 33 56 -7.3 18.9
07:00 1019 30.09 848 25.04 0.4 32.8 57 -7.1 19.2
07:05 1019 30.09 848 25.04 0.6 33.2 55 -7.3 18.9
07:10 1019 30.09 848 25.04 0.9 33.7 54 -7.3 18.8
07:15 1019 30.09 848 25.04 1 33.8 54 -7.3 18.8
07:20 1019 30.09 848 25.04 1.4 34.5 49 -8.1 17.4
07:25 1019 30.09 848 25.04 1.7 35.1 51 -7.3 18.8
07:30 1019 30.09 848 25.04 1.4 34.5 49 -8.2 17.3
07:35 1019 30.09 848 25.04 2.1 35.8 46 -8.4 16.9
07:40 1019 30.09 848 25.04 2.6 36.6 45 -8.2 17.2
07:45 1019 30.09 848 25.04 2.8 37 44 -8.3 17
07:50 1019 30.09 848 25.04 3.1 37.5 43 -8.2 17.2
07:55 1019 30.09 848 25.04 3.3 38 42 -8.3 17.1
08:00 1019 30.09 848 25.04 3.4 38.1 43 -8.2 17.3
08:05 1019 30.09 848 25.04 3.6 38.4 43 -8 17.6
08:10 1019 30.09 848 25.04 3.6 38.4 43 -7.9 17.8
08:15 1019 30.09 848 25.04 3.7 38.6 43 -7.7 18.1
08:20 1019 30.09 848 25.04 3.8 38.8 43 -7.6 18.3
08:25 1019 30.09 848 25.04 4 39.1 43 -7.6 18.3
08:30 1019 30.09 848 25.04 3.9 39.1 43 -7.6 18.3
08:35 1019 30.09 848 25.04 4 39.3 42 -7.6 18.2
08:40 1019 30.09 848 25.04 4.2 39.6 41 -7.7 18.1
08:45 1019 30.09 849 25.07 4.5 40 42 -7.5 18.5
08:50 1019 30.09 849 25.07 4.7 40.5 41 -7.5 18.4
08:55 1019 30.09 849 25.07 5 41 41 -7.2 19
09:00 1019 30.09 849 25.07 5.1 41.2 40 -7.4 18.7
09:05 1020 30.12 849 25.07 5.7 42.2 38 -7.5 18.6
09:10 1020 30.12 849 25.07 5.9 42.7 38 -7.2 19.1
09:15 1020 30.12 849 25.07 6.2 43.2 38 -7.2 19.1
09:20 1020 30.12 849 25.07 6 42.8 37 -7.5 18.5
09:25 1020 30.12 849 25.07 5.9 42.7 38 -7.4 18.7
09:30 1020 30.12 849 25.07 6.1 43.1 37 -7.5 18.5
09:35 1020 30.12 849 25.07 6.1 43 36 -7.7 18.1
09:40 1020 30.12 849 25.07 6.6 43.9 35 -7.9 17.7
09:45 1020 30.12 849 25.07 6.2 43.2 37 -7.4 18.7
09:50 1019 30.09 849 25.07 6.2 43.1 35 -8 17.6
09:55 1019 30.09 849 25.07 6 42.8 36 -8 17.6
10:00 1019 30.09 848 25.04 6.5 43.7 36 -7.6 18.4
10:05 1019 30.09 848 25.04 6.7 44.1 35 -7.7 18.1
10:10 1019 30.09 848 25.04 6.6 43.9 35 -7.7 18.1
10:15 1019 30.09 848 25.04 6.8 44.2 35 -7.8 17.9
10:20 1019 30.09 848 25.04 6.9 44.5 35 -7.6 18.4
10:25 1019 30.09 848 25.04 7.1 44.7 32 -8.6 16.4
10:30 1019 30.09 848 25.04 7.2 45 32 -8.2 17.3
10:35 1019 30.09 848 25.04 7.5 45.5 31 -8.7 16.4
10:40 1019 30.09 848 25.04 7.1 44.8 31 -8.9 15.9
10:45 1019 30.09 848 25.04 7 44.5 32 -8.5 16.6
10:50 1019 30.09 848 25.04 7.5 45.4 32 -8.1 17.4
10:55 1019 30.09 848 25.04 7.5 45.4 30 -9.2 15.5
11:00 1019 30.09 848 25.04 6.9 44.4 31 -9.2 15.4
11:05 1019 30.09 848 25.04 7.1 44.7 29 -9.6 14.7
11:10 1019 30.09 848 25.04 6.7 44.1 32 -8.7 16.4
11:15 1019 30.09 848 25.04 7.2 44.9 31 -8.9 16
11:20 1019 30.09 848 25.04 7.3 45.1 30 -9 15.8
11:25 1019 30.09 848 25.04 7.1 44.8 32 -8.7 16.4
11:30 1018 30.06 848 25.04 7.2 44.9 31 -9 15.9
11:35 1018 30.06 848 25.04 7.1 44.7 32 -8.7 16.4
11:40 1018 30.06 848 25.04 7.2 44.9 30 -9.5 15
11:45 1018 30.06 848 25.04 7.1 44.7 31 -9.2 15.5
11:50 1018 30.06 848 25.04 7.1 44.7 31 -9 15.8
11:55 1018 30.06 848 25.04 7 44.6 30 -9.4 15.1
12:00 1018 30.06 848 25.04 7.1 44.7 31 -8.9 15.9
12:05 1018 30.06 847 25.01 7 44.5 31 -9.2 15.4
12:10 1018 30.06 847 25.01 6.8 44.3 31 -9.3 15.2
12:15 1018 30.06 847 25.01 6.9 44.4 30 -9.6 14.7
12:20 1018 30.06 847 25.01 6.9 44.5 29 -9.8 14.3
12:25 1018 30.06 847 25.01 6.8 44.2 31 -9.2 15.4
12:30 1018 30.06 847 25.01 6.6 43.9 30 -9.7 14.5
12:35 1018 30.06 847 25.01 6.4 43.5 30 -10 14.1
12:40 1018 30.06 847 25.01 6.2 43.2 30 -10 14
12:45 1018 30.06 847 25.01 6.1 42.9 31 -9.8 14.4
12:50 1018 30.06 847 25.01 6 42.7 31 -9.8 14.4
12:55 1018 30.06 847 25.01 5.9 42.7 30 -10.2 13.6
13:00 1018 30.06 847 25.01 5.9 42.5 31 -9.9 14.2
13:05 1018 30.06 847 25.01 5.9 42.5 32 -9.8 14.4
13:10 1018 30.06 847 25.01 5.9 42.6 33 -9.3 15.3
13:15 1018 30.06 847 25.01 5.9 42.7 32 -9.6 14.8
13:20 1018 30.06 847 25.01 6.1 43 31 -9.9 14.1
13:25 1018 30.06 847 25.01 6.1 43 31 -9.7 14.6
13:30 1018 30.06 847 25.01 6 42.7 32 -9.7 14.6
13:35 1018 30.06 847 25.01 6.3 43.4 31 -9.6 14.7
13:40 1018 30.06 847 25.01 6.8 44.2 31 -9.3 15.2
13:45 1018 30.06 847 25.01 7 44.6 30 -9.4 15.1
13:50 1018 30.06 847 25.01 7.1 44.8 29 -9.7 14.5
13:55 1017 30.03 847 25.01 7.2 45 29 -9.6 14.8
14:00 1017 30.03 847 25.01 7.2 44.9 29 -9.6 14.7
14:05 1017 30.03 847 25.01 7.3 45.1 29 -9.5 14.8
14:10 1017 30.03 847 25.01 7.4 45.2 30 -9.3 15.3
14:15 1017 30.03 847 25.01 7.2 44.9 30 -9.1 15.6
14:20 1017 30.03 847 25.01 7 44.7 30 -9.3 15.3
14:25 1017 30.03 847 25.01 7 44.6 31 -9.1 15.6
14:30 1017 30.03 847 25.01 7 44.6 31 -9 15.7
14:35 1017 30.03 847 25.01 7.1 44.7 30 -9.2 15.5
14:40 1017 30.03 846 24.98 7.2 44.9 31 -9 15.8
14:45 1017 30.03 846 24.98 7.2 44.9 31 -8.9 15.9
14:50 1017 30.03 846 24.98 6.9 44.5 32 -8.8 16.1
14:55 1017 30.03 846 24.98 6.8 44.3 33 -8.4 16.9
15:00 1017 30.03 847 25.01 6.7 44.1 35 -7.8 18
15:05 1017 30.03 847 25.01 5.8 42.5 35 -8.3 17
15:10 1017 30.03 847 25.01 5.7 42.2 36 -8.5 16.8
15:15 1017 30.03 847 25.01 5.4 41.8 35 -8.7 16.4
15:20 1017 30.03 847 25.01 5.1 41.2 37 -8.3 17
15:25 1017 30.03 847 25.01 5.1 41.2 36 -8.6 16.6
15:30 1017 30.03 847 25.01 4.8 40.7 39 -8 17.6
15:35 1017 30.03 847 25.01 4.8 40.6 40 -7.7 18.1
15:40 1017 30.03 847 25.01 4.8 40.6 41 -7.3 18.8
15:45 1017 30.03 847 25.01 4 39.2 44 -7.1 19.2
15:50 1018 30.06 847 25.01 3.5 38.3 45 -7.3 18.9
15:55 1018 30.06 847 25.01 3.1 37.5 48 -6.8 19.8
16:00 1018 30.06 847 25.01 2.2 35.9 50 -7.3 18.8
16:05 1018 30.06 847 25.01 2 35.5 47 -8.2 17.2
16:10 1018 30.06 847 25.01 2.2 35.9 46 -8.3 17.1
16:15 1018 30.06 847 25.01 2.8 37.1 42 -8.7 16.3
16:20 1018 30.06 847 25.01 3.2 37.8 47 -6.9 19.5
16:25 1018 30.06 847 25.01 2.2 35.9 51 -6.9 19.5
16:30 1018 30.06 847 25.01 0.9 33.5 56 -6.9 19.5
16:35 1018 30.06 847 25.01 0.2 32.3 56 -7.6 18.4
16:40 1018 30.06 847 25.01 0.5 33 51 -8.4 16.9
16:45 1018 30.06 847 25.01 1.1 34 50 -8.2 17.2
16:50 1018 30.06 847 25.01 1.4 34.5 48 -8.4 16.9
16:55 1018 30.06 847 25.01 1.8 35.2 47 -8.4 16.9
17:00 1018 30.06 847 25.01 1.9 35.5 46 -8.5 16.7
17:05 1018 30.06 847 25.01 2.2 35.9 45 -8.6 16.4
17:10 1018 30.06 847 25.01 2.3 36.1 43 -9.2 15.5
17:15 1018 30.06 847 25.01 2.4 36.3 42 -9.1 15.6
17:20 1018 30.06 847 25.01 2.5 36.5 41 -9.4 15
17:25 1018 30.06 847 25.01 2.5 36.6 43 -8.8 16.2
17:30 1018 30.06 847 25.01 2.4 36.3 42 -9.2 15.5
17:35 1018 30.06 847 25.01 2.4 36.4 45 -8.3 17
17:40 1018 30.06 847 25.01 1.9 35.4 47 -8.4 16.9
17:45 1018 30.06 847 25.01 1.5 34.8 44 -9.5 15
17:50 1018 30.06 847 25.01 1.9 35.4 46 -8.5 16.8
17:55 1018 30.06 847 25.01 1.5 34.6 45 -9.2 15.5
18:00 1018 30.06 847 25.01 1.6 34.9 42 -9.8 14.3
18:05 1017 30.03 847 25.01 2.1 35.8 45 -8.7 16.4
18:10 1017 30.03 847 25.01 1.7 35.1 46 -8.7 16.3
18:15 1017 30.03 847 25.01 1.6 34.9 44 -9.5 15
18:20 1017 30.03 847 25.01 1.7 35 45 -8.9 15.9
18:25 1017 30.03 847 25.01 1.7 35.1 41 -10 13.9
18:30 1017 30.03 847 25.01 2 35.6 43 -9.4 15.1
18:35 1017 30.03 846 24.98 1.9 35.4 44 -9.1 15.5
18:40 1017 30.03 846 24.98 1.5 34.7 46 -9 15.8
18:45 1017 30.03 847 25.01 0.8 33.5 46 -9.5 14.9
18:50 1017 30.03 847 25.01 0.6 33.1 46 -9.7 14.6
18:55 1017 30.03 847 25.01 0.7 33.3 45 -9.9 14.1
19:00 1017 30.03 847 25.01 0.5 32.9 48 -9.3 15.2
19:05 1017 30.03 847 25.01 0.3 32.6 46 -9.9 14.2
19:10 1017 30.03 847 25.01 0.5 32.8 48 -9.4 15.1
19:15 1017 30.03 847 25.01 0 32 50 -9.2 15.5
19:20 1017 30.03 847 25.01 -0.4 31.3 52 -9.2 15.4
19:25 1017 30.03 847 25.01 -0.5 31.2 51 -9.5 15
19:30 1017 30.03 847 25.01 -0.3 31.4 51 -9.3 15.3
19:35 1017 30.03 847 25.01 -0.3 31.4 51 -9.2 15.5
19:40 1017 30.03 847 25.01 -0.5 31.1 52 -9.1 15.6
19:45 1017 30.03 847 25.01 -0.7 30.8 52 -9.2 15.4
19:50 1017 30.03 847 25.01 -0.7 30.7 53 -9.2 15.4
19:55 1017 30.03 847 25.01 -0.6 30.9 52 -9.4 15.1
20:00 1017 30.03 847 25.01 -0.4 31.2 52 -9.3 15.3
20:05 1017 30.03 846 24.98 -0.3 31.4 52 -9.1 15.6
20:10 1017 30.03 846 24.98 -0.4 31.2 52 -9 15.8
20:15 1017 30.03 846 24.98 -0.4 31.3 53 -8.9 15.9
20:20 1017 30.03 846 24.98 -0.5 31.2 53 -8.9 15.9
20:25 1017 30.03 846 24.98 -0.4 31.3 52 -9 15.8
20:30 1017 30.03 846 24.98 -0.5 31.1 54 -8.8 16.1
20:35 1017 30.03 846 24.98 -0.6 31 53 -8.9 16
20:40 1017 30.03 846 24.98 -0.5 31 55 -8.6 16.5
20:45 1017 30.03 846 24.98 -0.7 30.7 55 -8.7 16.3
20:50 1017 30.03 847 25.01 -0.6 30.9 54 -8.7 16.3
20:55 1017 30.03 847 25.01 -0.5 31.2 54 -8.7 16.3
21:00 1017 30.03 847 25.01 -0.4 31.3 53 -8.8 16.2
21:05 1017 30.03 846 24.98 -0.3 31.5 52 -8.9 16.1
21:10 1017 30.03 846 24.98 -0.1 31.8 52 -9 15.9
21:15 1017 30.03 847 25.01 0 32 51 -8.9 16
21:20 1017 30.03 847 25.01 -0.1 31.8 52 -8.8 16.1
21:25 1017 30.03 846 24.98 -0.6 31 54 -8.8 16.1
21:30 1017 30.03 846 24.98 -0.8 30.5 54 -9.1 15.7
21:35 1017 30.03 846 24.98 -0.8 30.5 53 -9.2 15.5
21:40 1017 30.03 846 24.98 -0.8 30.6 53 -9.3 15.3
21:45 1017 30.03 847 25.01 -0.6 30.9 52 -9.3 15.3
21:50 1017 30.03 846 24.98 -0.6 30.9 51 -9.4 15
21:55 1017 30.03 846 24.98 -0.4 31.2 50 -9.6 14.7
22:00 1017 30.03 847 25.01 -0.1 31.8 50 -9.5 14.9
22:05 1017 30.03 846 24.98 -0.1 31.8 50 -9.2 15.4
22:10 1017 30.03 846 24.98 -0.2 31.6 51 -9.2 15.5
22:15 1017 30.03 846 24.98 -0.3 31.5 51 -9.2 15.5
22:20 1017 30.03 846 24.98 -0.4 31.3 52 -9.2 15.5
22:25 1017 30.03 847 25.01 -0.5 31.2 51 -9.3 15.3
22:30 1017 30.03 847 25.01 -0.4 31.2 51 -9.2 15.4
22:35 1017 30.03 847 25.01 -0.5 31.1 52 -9.1 15.6
22:40 1017 30.03 847 25.01 -0.7 30.8 53 -9.2 15.5
22:45 1017 30.03 847 25.01 -0.8 30.6 53 -9.1 15.6
22:50 1017 30.03 847 25.01 -1 30.3 54 -9.2 15.5
22:55 1017 30.03 847 25.01 -0.9 30.3 53 -9.3 15.3
23:00 1018 30.06 847 25.01 -0.9 30.3 53 -9.3 15.3
23:05 1018 30.06 847 25.01 -0.8 30.6 53 -9.2 15.4
23:10 1018 30.06 847 25.01 -0.7 30.8 53 -9.2 15.4
23:15 1018 30.06 847 25.01 -0.7 30.8 53 -9.1 15.6
23:20 1018 30.06 847 25.01 -0.8 30.6 53 -9.1 15.6
23:25 1018 30.06 847 25.01 -0.8 30.5 54 -9 15.8
23:30 1018 30.06 847 25.01 -0.8 30.5 54 -8.9 16
23:35 1018 30.06 847 25.01 -1 30.2 55 -8.9 16.1
23:40 1018 30.06 847 25.01 -1 30.2 56 -8.7 16.3
23:45 1018 30.06 847 25.01 -1.4 29.5 57 -8.9 15.9
23:50 1018 30.06 847 25.01 -1.8 28.8 61 -8.4 16.9
23:55 1018 30.06 847 25.01 -1.8 28.8 58 -9.1 15.7
24:00 1018 30.06 847 25.01 -1.7 28.9 57 -9.1 15.6